Time;durP1;ratioP1;P1;durP2;ratioP2;P2;SDS_P1;SDS_P2;PMS_P1;PMS_P2;Temp;Humidity;BMP_temperature;BMP_pressure;BME280_temperature;BME280_humidity;BME280_pressure;Samples;Min_cycle;Max_cycle;Signal;HPM_P1;HPM_P2
2022/03/23 00:01:42;;;;;;;70.82;48.85;;;10.20;99.90;;;;;;6128935;23;20024;-74
2022/03/23 00:04:08;;;;;;;78.90;48.67;;;10.20;99.90;;;;;;6154274;23;20096;-73
2022/03/23 00:06:34;;;;;;;75.05;48.92;;;10.20;99.90;;;;;;6129359;23;20022;-73
2022/03/23 00:09:00;;;;;;;70.25;48.63;;;10.10;99.90;;;;;;6129111;23;20460;-73
2022/03/23 00:11:27;;;;;;;70.00;49.28;;;10.40;99.90;;;;;;6105115;23;20400;-73
2022/03/23 00:13:54;;;;;;;75.68;48.03;;;10.10;99.90;;;;;;6155266;23;20014;-74
2022/03/23 00:16:21;;;;;;;73.97;47.78;;;10.10;99.90;;;;;;6128953;23;20023;-74
2022/03/23 00:18:46;;;;;;;71.03;47.72;;;10.10;99.90;;;;;;6153482;23;20523;-74
2022/03/23 00:21:13;;;;;;;78.85;49.30;;;10.10;99.90;;;;;;6155617;23;20017;-74
2022/03/23 00:23:39;;;;;;;72.53;48.47;;;10.00;99.90;;;;;;6129247;23;20459;-73
2022/03/23 00:26:05;;;;;;;68.85;48.38;;;10.30;99.90;;;;;;6129214;23;20017;-74
2022/03/23 00:28:31;;;;;;;72.20;48.75;;;10.00;99.90;;;;;;6153679;23;20017;-73
2022/03/23 00:30:57;;;;;;;70.72;47.60;;;10.00;99.90;;;;;;6155359;23;20337;-73
2022/03/23 00:33:22;;;;;;;75.57;50.28;;;9.90;99.90;;;;;;6129238;23;20017;-73
2022/03/23 00:35:49;;;;;;;78.35;50.00;;;9.90;99.90;;;;;;6129026;23;20013;-73
2022/03/23 00:38:18;;;;;;;71.30;47.47;;;9.90;99.90;;;;;;6153784;23;20013;-73
2022/03/23 00:40:45;;;;;;;78.53;47.28;;;9.90;99.90;;;;;;6153776;23;20018;-73
2022/03/23 00:43:11;;;;;;;74.63;46.47;;;9.90;99.90;;;;;;6153247;23;20452;-73
2022/03/23 00:45:39;;;;;;;74.63;48.03;;;9.90;99.90;;;;;;6153472;23;20020;-73
2022/03/23 00:48:05;;;;;;;75.13;48.45;;;9.90;99.90;;;;;;6153589;23;20013;-74
2022/03/23 00:50:31;;;;;;;70.18;46.72;;;9.90;99.90;;;;;;6154600;23;20017;-73
2022/03/23 00:52:57;;;;;;;71.93;47.97;;;9.80;99.90;;;;;;6178332;23;20010;-74
2022/03/23 00:55:23;;;;;;;71.10;47.55;;;9.80;99.90;;;;;;6153490;23;20355;-73
2022/03/23 00:57:49;;;;;;;83.25;48.10;;;9.80;99.90;;;;;;6153932;23;20084;-73
2022/03/23 01:00:16;;;;;;;71.55;49.85;;;9.80;99.90;;;;;;6153505;23;20048;-73
2022/03/23 01:02:44;;;;;;;71.65;48.28;;;9.80;99.90;;;;;;6129354;23;20017;-73
2022/03/23 01:05:13;;;;;;;74.72;50.80;;;9.80;99.90;;;;;;6153411;23;20021;-73
2022/03/23 01:07:39;;;;;;;81.88;50.05;;;9.80;99.90;;;;;;6128564;23;20013;-73
2022/03/23 01:10:07;;;;;;;75.43;49.53;;;9.70;99.90;;;;;;6153294;23;20093;-74
2022/03/23 01:12:33;;;;;;;77.18;48.40;;;9.70;99.90;;;;;;6153079;23;20018;-74
2022/03/23 01:14:58;;;;;;;80.55;49.88;;;9.70;99.90;;;;;;6154868;23;20367;-74
2022/03/23 01:17:25;;;;;;;75.95;50.90;;;9.70;99.90;;;;;;6153034;23;20336;-74
2022/03/23 01:19:51;;;;;;;72.75;47.85;;;9.70;99.90;;;;;;6153217;23;20059;-73
2022/03/23 01:22:17;;;;;;;71.20;48.55;;;9.60;99.90;;;;;;6154786;23;20014;-73
2022/03/23 01:24:44;;;;;;;72.45;48.70;;;9.60;99.90;;;;;;6128849;23;20152;-73
2022/03/23 01:27:10;;;;;;;79.15;48.50;;;9.70;99.90;;;;;;6155015;23;20328;-73
2022/03/23 01:29:36;;;;;;;71.53;48.47;;;10.00;99.90;;;;;;6153442;23;20093;-73
2022/03/23 01:32:03;;;;;;;74.18;47.78;;;9.60;99.90;;;;;;6153575;23;20344;-73
2022/03/23 01:34:28;;;;;;;76.05;48.40;;;9.60;99.90;;;;;;6155459;23;20052;-73
2022/03/23 01:36:54;;;;;;;77.07;48.78;;;9.50;99.90;;;;;;6153651;23;20014;-73
2022/03/23 01:39:20;;;;;;;72.80;49.53;;;9.60;99.90;;;;;;6154776;23;20383;-73
2022/03/23 01:41:46;;;;;;;73.97;49.17;;;9.50;99.90;;;;;;6153508;23;20028;-73
2022/03/23 01:44:24;;;;;;;77.82;50.08;;;9.60;99.90;;;;;;6153943;23;20028;-73
2022/03/23 01:47:13;;;;;;;78.78;50.58;;;9.60;99.90;;;;;;6154125;23;20096;-73
2022/03/23 01:49:44;;;;;;;75.93;48.38;;;9.50;99.90;;;;;;6155344;23;20013;-73
2022/03/23 01:52:17;;;;;;;74.63;48.25;;;9.50;99.90;;;;;;6156897;23;20017;-73
2022/03/23 01:54:44;;;;;;;69.78;47.42;;;9.50;99.90;;;;;;6155030;23;20522;-73
2022/03/23 01:57:12;;;;;;;74.43;47.97;;;9.50;99.90;;;;;;6155208;23;20470;-73
2022/03/23 01:59:38;;;;;;;72.03;48.88;;;9.50;99.90;;;;;;6155220;23;20024;-73
2022/03/23 02:02:05;;;;;;;76.50;48.63;;;9.40;99.90;;;;;;6155112;23;20337;-73
2022/03/23 02:04:30;;;;;;;72.10;48.70;;;9.40;99.90;;;;;;6155126;23;20018;-73
2022/03/23 02:06:56;;;;;;;74.30;49.47;;;9.40;99.90;;;;;;6155183;23;20128;-73
2022/03/23 02:09:26;;;;;;;76.15;48.03;;;9.30;99.90;;;;;;6155002;23;20021;-73
2022/03/23 02:11:53;;;;;;;73.30;47.35;;;9.30;99.90;;;;;;6156126;23;20052;-73
2022/03/23 02:14:20;;;;;;;77.63;48.35;;;9.20;99.90;;;;;;6155336;23;20018;-73
2022/03/23 02:16:48;;;;;;;73.30;48.65;;;9.20;99.90;;;;;;6156265;23;20076;-73
2022/03/23 02:19:14;;;;;;;78.35;49.75;;;9.20;99.90;;;;;;6154809;23;20022;-73
2022/03/23 02:21:44;;;;;;;77.13;50.50;;;9.20;99.90;;;;;;6154863;23;20372;-73
2022/03/23 02:24:10;;;;;;;75.72;49.67;;;9.20;99.90;;;;;;6154776;23;20345;-73
2022/03/23 02:26:39;;;;;;;74.05;48.67;;;9.20;99.90;;;;;;6155079;23;20092;-73
2022/03/23 02:29:05;;;;;;;79.03;51.63;;;9.10;99.90;;;;;;6129715;23;20089;-73
2022/03/23 02:31:31;;;;;;;79.15;50.65;;;9.10;99.90;;;;;;6130400;23;20048;-73
2022/03/23 02:33:57;;;;;;;78.63;48.88;;;9.10;99.90;;;;;;6154832;23;20017;-73
2022/03/23 02:36:24;;;;;;;78.18;51.75;;;9.10;99.90;;;;;;6155000;23;20052;-73
2022/03/23 02:38:49;;;;;;;85.53;51.17;;;9.10;99.90;;;;;;6156297;23;20019;-73
2022/03/23 02:41:15;;;;;;;82.00;51.30;;;9.10;99.90;;;;;;6154720;23;20079;-74
2022/03/23 02:43:41;;;;;;;80.05;50.72;;;9.10;99.90;;;;;;6154973;23;20017;-74
2022/03/23 02:46:19;;;;;;;77.20;50.80;;;9.40;99.90;;;;;;6129553;23;20021;-74
2022/03/23 02:48:46;;;;;;;74.18;49.88;;;9.10;99.90;;;;;;6156263;23;20017;-74
2022/03/23 02:51:12;;;;;;;77.82;52.13;;;9.00;99.90;;;;;;6156290;23;20017;-74
2022/03/23 03:02:35;;;;;;;79.32;51.10;;;9.60;99.90;;;;;;6155790;23;20029;-74
2022/03/23 03:05:01;;;;;;;79.00;51.55;;;8.90;99.90;;;;;;6130107;23;20019;-74
2022/03/23 03:07:27;;;;;;;79.80;51.47;;;8.90;99.90;;;;;;6154592;23;20020;-75
2022/03/23 03:09:53;;;;;;;77.70;51.17;;;8.90;99.90;;;;;;6154465;23;20062;-74
2022/03/23 03:12:18;;;;;;;79.65;52.78;;;8.90;99.90;;;;;;6154535;23;20017;-74
2022/03/23 03:14:44;;;;;;;81.95;51.95;;;8.90;99.90;;;;;;6154479;23;20426;-74
2022/03/23 03:17:10;;;;;;;86.13;52.92;;;8.90;99.90;;;;;;6154281;23;20056;-74
2022/03/23 03:19:36;;;;;;;85.93;53.25;;;8.90;99.90;;;;;;6129224;23;20439;-74
2022/03/23 03:22:04;;;;;;;80.18;51.45;;;8.80;99.90;;;;;;6154332;23;20014;-74
2022/03/23 03:24:30;;;;;;;81.38;53.50;;;8.80;99.90;;;;;;6154512;23;20079;-74
2022/03/23 03:26:56;;;;;;;86.20;52.15;;;8.80;99.90;;;;;;6154548;23;20332;-74
2022/03/23 03:29:23;;;;;;;83.53;52.80;;;8.80;99.90;;;;;;6154054;23;20096;-74
2022/03/23 03:31:49;;;;;;;80.00;52.33;;;8.80;99.90;;;;;;6129869;23;20040;-74
2022/03/23 03:34:15;;;;;;;79.10;54.30;;;9.10;99.90;;;;;;6129896;23;20092;-74
2022/03/23 03:36:41;;;;;;;80.22;52.65;;;8.70;99.90;;;;;;6153752;23;20076;-73
2022/03/23 03:39:07;;;;;;;82.78;54.30;;;8.70;99.90;;;;;;6155990;23;20093;-73
2022/03/23 03:41:34;;;;;;;79.72;53.03;;;8.70;99.90;;;;;;6154284;23;20024;-73
2022/03/23 03:44:03;;;;;;;86.70;53.80;;;8.70;99.90;;;;;;6154018;23;20025;-73
2022/03/23 03:46:29;;;;;;;85.50;54.13;;;8.70;99.90;;;;;;6156095;23;20360;-73
2022/03/23 03:48:55;;;;;;;81.68;52.63;;;8.70;99.90;;;;;;6153972;23;20020;-73
2022/03/23 03:51:21;;;;;;;91.72;55.72;;;8.70;99.90;;;;;;6154109;23;20010;-73
2022/03/23 03:53:47;;;;;;;81.38;52.97;;;8.70;99.90;;;;;;6129143;23;20024;-73
2022/03/23 03:56:13;;;;;;;82.88;53.75;;;8.80;99.90;;;;;;6153982;23;20014;-73
2022/03/23 03:58:39;;;;;;;80.00;53.30;;;8.60;99.90;;;;;;6154013;23;20017;-73
2022/03/23 04:01:06;;;;;;;82.97;52.60;;;8.60;99.90;;;;;;6153834;23;20017;-73
2022/03/23 04:03:32;;;;;;;82.25;54.60;;;8.70;99.90;;;;;;6154349;23;20028;-73
2022/03/23 04:05:57;;;;;;;87.07;55.08;;;8.60;99.90;;;;;;6153847;23;20412;-73
2022/03/23 04:08:23;;;;;;;86.20;54.63;;;8.60;99.90;;;;;;6153744;23;20018;-73
2022/03/23 04:10:51;;;;;;;81.53;53.72;;;8.50;99.90;;;;;;6153319;23;20021;-73
2022/03/23 04:13:17;;;;;;;82.25;52.72;;;8.50;99.90;;;;;;6153473;23;20014;-73
2022/03/23 04:15:43;;;;;;;84.78;55.22;;;8.50;99.90;;;;;;6129349;23;20013;-73
2022/03/23 04:18:09;;;;;;;87.22;54.75;;;8.50;99.90;;;;;;6153845;23;20378;-73
2022/03/23 04:20:35;;;;;;;88.00;57.65;;;8.50;99.90;;;;;;6153573;23;20017;-74
2022/03/23 04:23:01;;;;;;;80.70;54.40;;;8.40;99.90;;;;;;6154034;23;20336;-74
2022/03/23 04:25:27;;;;;;;87.07;54.00;;;8.40;99.90;;;;;;6153457;23;20024;-73
2022/03/23 04:27:58;;;;;;;85.72;54.28;;;8.40;99.90;;;;;;6153200;23;20147;-73
2022/03/23 04:30:30;;;;;;;81.20;53.13;;;8.60;99.90;;;;;;6128852;23;20048;-73
2022/03/23 04:32:57;;;;;;;83.85;55.35;;;8.40;99.90;;;;;;6129019;23;20013;-73
2022/03/23 04:35:24;;;;;;;78.30;54.20;;;8.40;99.90;;;;;;6153707;23;20013;-73
2022/03/23 04:37:50;;;;;;;85.53;54.40;;;8.40;99.90;;;;;;6153060;23;20515;-73
2022/03/23 04:40:17;;;;;;;83.03;53.10;;;8.30;99.90;;;;;;6129171;23;20117;-73
2022/03/23 04:42:44;;;;;;;80.78;52.58;;;8.30;99.90;;;;;;6153196;23;20013;-73
2022/03/23 04:45:11;;;;;;;83.80;54.42;;;8.30;99.90;;;;;;6154877;23;20480;-73
2022/03/23 04:47:37;;;;;;;85.35;55.63;;;8.20;99.90;;;;;;6153476;23;20387;-73
2022/03/23 04:50:05;;;;;;;87.60;55.25;;;8.30;99.90;;;;;;6128903;23;20053;-73
2022/03/23 04:52:31;;;;;;;83.85;55.63;;;8.20;99.90;;;;;;6153403;23;20017;-73
2022/03/23 04:54:57;;;;;;;84.03;54.80;;;8.20;99.90;;;;;;6153726;23;20060;-73
2022/03/23 04:57:25;;;;;;;81.18;54.38;;;8.20;99.90;;;;;;6153249;23;20010;-74
2022/03/23 04:59:51;;;;;;;84.32;54.33;;;8.20;99.90;;;;;;6128524;23;20126;-73
2022/03/23 05:02:17;;;;;;;79.63;55.35;;;8.10;99.90;;;;;;6153396;23;20021;-73
2022/03/23 05:04:43;;;;;;;82.32;54.72;;;8.10;99.90;;;;;;6153409;23;20071;-73
2022/03/23 05:07:09;;;;;;;84.10;54.67;;;8.10;99.90;;;;;;6129054;23;20460;-73
2022/03/23 05:09:34;;;;;;;86.43;54.63;;;8.10;99.90;;;;;;6153322;23;20096;-74
2022/03/23 05:12:01;;;;;;;81.70;53.53;;;8.10;99.90;;;;;;6153085;23;20024;-74
2022/03/23 05:14:26;;;;;;;84.97;54.80;;;8.10;99.90;;;;;;6152680;23;20436;-74
2022/03/23 05:16:52;;;;;;;80.93;55.28;;;8.10;99.90;;;;;;6152601;23;20013;-73
2022/03/23 05:19:18;;;;;;;84.15;56.38;;;8.00;99.90;;;;;;6153305;23;20415;-73
2022/03/23 05:21:43;;;;;;;86.03;53.97;;;8.10;99.90;;;;;;6154036;23;20017;-73
2022/03/23 05:24:11;;;;;;;84.57;53.83;;;8.00;99.90;;;;;;6155323;23;20017;-73
2022/03/23 05:26:37;;;;;;;86.38;54.58;;;8.00;99.90;;;;;;6155450;23;20013;-73
2022/03/23 05:29:03;;;;;;;89.43;54.47;;;8.00;99.90;;;;;;6157304;23;20013;-72
2022/03/23 05:31:29;;;;;;;80.45;53.55;;;8.00;99.90;;;;;;6106047;23;20439;-73
2022/03/23 05:33:54;;;;;;;81.45;53.42;;;8.00;99.90;;;;;;6155373;23;20010;-73
2022/03/23 05:36:20;;;;;;;84.30;53.35;;;8.10;99.90;;;;;;6155097;23;20149;-72
2022/03/23 05:38:46;;;;;;;86.00;53.95;;;8.00;99.90;;;;;;6131183;23;20024;-73
2022/03/23 05:41:11;;;;;;;82.30;55.03;;;8.00;99.90;;;;;;6155222;23;20025;-73
2022/03/23 05:43:37;;;;;;;84.63;55.20;;;8.00;99.90;;;;;;6157107;23;20014;-73
2022/03/23 05:46:03;;;;;;;85.25;54.88;;;7.90;99.90;;;;;;6106720;23;20507;-73
2022/03/23 05:48:32;;;;;;;85.32;54.08;;;7.90;99.90;;;;;;6155029;23;20075;-73
2022/03/23 05:50:57;;;;;;;86.68;54.78;;;8.00;99.90;;;;;;6154488;23;20017;-73
2022/03/23 05:53:23;;;;;;;83.00;55.38;;;7.90;99.90;;;;;;6154768;23;20056;-73
2022/03/23 05:55:49;;;;;;;93.80;56.30;;;7.90;99.90;;;;;;6154789;23;20017;-73
2022/03/23 05:58:16;;;;;;;84.95;54.28;;;7.90;99.90;;;;;;6154980;23;20020;-73
2022/03/23 06:00:42;;;;;;;79.80;54.15;;;8.00;99.90;;;;;;6129890;23;20495;-73
2022/03/23 06:03:07;;;;;;;86.00;54.67;;;7.90;99.90;;;;;;6155469;23;20021;-73
2022/03/23 06:05:36;;;;;;;89.10;56.00;;;8.00;99.90;;;;;;6156775;23;20021;-74
2022/03/23 06:08:03;;;;;;;86.40;56.42;;;8.00;99.90;;;;;;6155102;23;20444;-74
2022/03/23 06:10:29;;;;;;;84.95;56.42;;;8.00;99.90;;;;;;6130550;23;20021;-75
2022/03/23 06:12:55;;;;;;;79.97;54.97;;;8.00;99.90;;;;;;6154939;23;20340;-75
2022/03/23 06:15:40;;;;;;;91.13;55.97;;;8.00;99.90;;;;;;6154992;23;20486;-74
2022/03/23 06:18:06;;;;;;;84.88;55.22;;;8.10;99.90;;;;;;6130243;23;20014;-76
2022/03/23 06:20:32;;;;;;;85.07;56.50;;;8.20;99.90;;;;;;6154998;23;20397;-77
2022/03/23 06:22:58;;;;;;;82.90;55.33;;;8.10;99.90;;;;;;6154934;23;20017;-77
2022/03/23 06:25:27;;;;;;;85.32;54.42;;;8.10;99.90;;;;;;6130398;23;20076;-76
2022/03/23 06:27:53;;;;;;;86.63;56.35;;;8.10;99.90;;;;;;6152884;23;20392;-80
2022/03/23 06:30:19;;;;;;;91.30;55.00;;;8.70;99.90;;;;;;6176268;23;20010;-80
2022/03/23 06:32:45;;;;;;;90.80;55.35;;;8.70;99.90;;;;;;6151832;23;20064;-80
2022/03/23 06:35:11;;;;;;;84.07;54.35;;;8.20;99.90;;;;;;6103166;23;20403;-80
2022/03/23 06:37:36;;;;;;;86.30;53.80;;;8.20;99.90;;;;;;6153594;23;20053;-79
2022/03/23 06:40:04;;;;;;;90.10;54.38;;;8.80;99.90;;;;;;6152277;23;20416;-80
2022/03/23 06:42:30;;;;;;;82.63;54.33;;;8.20;99.90;;;;;;6153547;23;20026;-80
2022/03/23 06:44:56;;;;;;;80.53;53.55;;;8.70;99.90;;;;;;6154326;23;20072;-81
2022/03/23 06:47:32;;;;;;;86.18;54.25;;;7.80;99.90;;;;;;6153711;23;20092;-81
2022/03/23 06:49:58;;;;;;;83.63;54.15;;;8.30;99.90;;;;;;6152309;23;20049;-80
2022/03/23 06:52:23;;;;;;;90.55;55.70;;;8.30;99.90;;;;;;6152227;23;20036;-81
2022/03/23 06:55:01;;;;;;;82.57;53.15;;;8.40;99.90;;;;;;6154717;23;20049;-80
2022/03/23 06:57:30;;;;;;;93.28;54.05;;;8.40;99.90;;;;;;6128430;23;20344;-83
2022/03/23 07:00:12;;;;;;;79.45;53.03;;;8.40;99.90;;;;;;6152698;23;20013;-83
2022/03/23 07:02:43;;;;;;;88.93;52.90;;;8.40;99.90;;;;;;6152519;23;20016;-78
2022/03/23 07:05:11;;;;;;;94.53;52.90;;;8.20;99.90;;;;;;6175893;23;20018;-76
2022/03/23 07:07:37;;;;;;;76.15;51.13;;;8.50;99.90;;;;;;6153753;23;20045;-77
2022/03/23 07:10:04;;;;;;;78.50;52.05;;;9.50;99.90;;;;;;6152261;23;20340;-76
2022/03/23 07:12:30;;;;;;;78.45;50.55;;;8.60;99.90;;;;;;6152066;23;20066;-76
2022/03/23 07:14:58;;;;;;;78.22;49.90;;;8.70;99.90;;;;;;6151834;23;20020;-77
2022/03/23 07:17:24;;;;;;;79.80;51.25;;;8.70;99.90;;;;;;6151020;23;20021;-77
2022/03/23 07:19:50;;;;;;;83.60;50.92;;;8.70;99.90;;;;;;6151747;23;20352;-77
2022/03/23 07:22:19;;;;;;;77.28;49.92;;;8.80;99.90;;;;;;6152028;23;20017;-73
2022/03/23 07:24:46;;;;;;;74.97;47.50;;;8.80;99.90;;;;;;6151784;23;20017;-73
2022/03/23 07:27:11;;;;;;;69.30;47.30;;;8.90;99.90;;;;;;6151783;23;20340;-74
2022/03/23 07:29:37;;;;;;;83.57;49.95;;;8.90;99.90;;;;;;6126559;23;20480;-73
2022/03/23 07:32:03;;;;;;;78.05;47.75;;;8.90;99.90;;;;;;6152045;23;20017;-75
2022/03/23 07:34:29;;;;;;;78.05;48.20;;;9.00;99.90;;;;;;6150487;23;20448;-73
2022/03/23 07:36:55;;;;;;;77.97;48.45;;;9.00;99.90;;;;;;6153417;23;20017;-74
2022/03/23 07:39:23;;;;;;;73.63;46.97;;;9.00;99.90;;;;;;6152949;23;20049;-74
2022/03/23 07:41:53;;;;;;;69.43;45.72;;;9.60;99.90;;;;;;6153389;23;20121;-74
2022/03/23 07:44:21;;;;;;;74.30;47.65;;;9.20;99.90;;;;;;6152905;23;20017;-74
2022/03/23 07:46:47;;;;;;;67.32;45.28;;;9.30;99.90;;;;;;6151972;23;20013;-74
2022/03/23 07:49:14;;;;;;;68.20;45.00;;;9.30;99.90;;;;;;6151298;23;20049;-75
2022/03/23 07:51:40;;;;;;;69.68;45.05;;;9.30;99.90;;;;;;6151245;23;20229;-75
2022/03/23 07:54:06;;;;;;;66.40;43.33;;;9.40;99.90;;;;;;6151379;23;20013;-74
2022/03/23 07:56:33;;;;;;;71.47;43.83;;;9.40;99.90;;;;;;6151086;23;20013;-74
2022/03/23 07:58:58;;;;;;;71.50;43.10;;;9.50;99.90;;;;;;6127092;23;20024;-74
2022/03/23 08:01:24;;;;;;;72.72;43.17;;;9.60;99.90;;;;;;6127165;23;20014;-72
2022/03/23 08:03:50;;;;;;;68.22;40.35;;;9.70;99.90;;;;;;6151520;23;20017;-72
2022/03/23 08:06:16;;;;;;;66.75;38.97;;;9.70;99.90;;;;;;6151932;23;20428;-73
2022/03/23 08:08:42;;;;;;;59.42;36.05;;;9.70;99.90;;;;;;6151183;23;20016;-72
2022/03/23 08:11:08;;;;;;;55.88;36.33;;;9.90;99.90;;;;;;6151311;23;20080;-72
2022/03/23 08:13:34;;;;;;;55.67;35.60;;;9.90;99.90;;;;;;6126038;23;20092;-72
2022/03/23 08:16:01;;;;;;;60.17;37.40;;;9.90;99.90;;;;;;6151542;23;20010;-72
2022/03/23 08:18:29;;;;;;;59.80;37.90;;;10.00;99.90;;;;;;6151560;23;20026;-73
2022/03/23 08:20:55;;;;;;;65.97;39.45;;;10.40;99.90;;;;;;6125431;23;20017;-74
2022/03/23 08:23:25;;;;;;;59.72;38.38;;;10.10;99.90;;;;;;6150186;23;20440;-75
2022/03/23 08:25:51;;;;;;;61.03;39.45;;;10.20;99.90;;;;;;6127496;23;20025;-73
2022/03/23 08:28:17;;;;;;;58.25;38.40;;;10.20;99.90;;;;;;6126534;23;20013;-73
2022/03/23 08:30:44;;;;;;;57.65;38.88;;;10.20;99.90;;;;;;6175977;23;20060;-73
2022/03/23 08:33:10;;;;;;;57.10;37.88;;;10.30;99.90;;;;;;6151427;23;20398;-73
2022/03/23 08:35:36;;;;;;;63.22;38.70;;;10.70;99.90;;;;;;6151060;23;20072;-72
2022/03/23 08:38:03;;;;;;;55.17;37.00;;;10.30;99.90;;;;;;6152979;23;20426;-74
2022/03/23 08:40:29;;;;;;;56.15;38.08;;;10.40;99.90;;;;;;6151923;23;20440;-74
2022/03/23 08:42:57;;;;;;;53.53;36.35;;;10.50;99.90;;;;;;6150934;23;20022;-73
2022/03/23 08:45:23;;;;;;;53.95;36.15;;;10.50;99.90;;;;;;6126202;23;20045;-73
2022/03/23 08:47:49;;;;;;;58.83;37.40;;;10.50;99.90;;;;;;6175924;23;20300;-72
2022/03/23 08:50:16;;;;;;;50.72;34.33;;;10.60;99.90;;;;;;6152044;23;20100;-72
2022/03/23 08:52:42;;;;;;;51.30;34.70;;;10.60;99.90;;;;;;6151984;23;20014;-73
2022/03/23 08:55:14;;;;;;;53.08;35.50;;;10.70;99.90;;;;;;6151511;23;20056;-73
2022/03/23 08:57:41;;;;;;;51.72;35.88;;;10.70;99.90;;;;;;6126240;23;20474;-74
2022/03/23 09:00:11;;;;;;;57.17;37.30;;;10.80;99.90;;;;;;6126529;23;20451;-73
2022/03/23 09:02:37;;;;;;;58.78;36.92;;;10.90;99.90;;;;;;6150934;23;20017;-74
2022/03/23 09:05:03;;;;;;;52.47;36.22;;;11.00;99.90;;;;;;6150752;23;20025;-74
2022/03/23 09:07:32;;;;;;;54.60;36.40;;;11.00;99.90;;;;;;6150680;23;20017;-73
2022/03/23 09:09:58;;;;;;;56.47;36.00;;;11.10;99.90;;;;;;6152303;23;20014;-74
2022/03/23 09:12:24;;;;;;;55.00;35.72;;;11.20;99.90;;;;;;6151091;23;20344;-73
2022/03/23 09:14:49;;;;;;;53.53;34.28;;;11.60;99.90;;;;;;6152313;23;20083;-73
2022/03/23 09:17:15;;;;;;;53.95;34.47;;;11.30;99.90;;;;;;6175418;23;20017;-73
2022/03/23 09:19:41;;;;;;;55.97;34.45;;;11.30;99.90;;;;;;6151874;23;20040;-74
2022/03/23 09:22:07;;;;;;;52.35;32.83;;;11.40;99.90;;;;;;6151012;23;20388;-74
2022/03/23 09:24:36;;;;;;;50.15;32.97;;;11.50;99.90;;;;;;6152571;23;20313;-79
2022/03/23 09:27:01;;;;;;;47.95;32.28;;;11.50;99.90;;;;;;6150902;23;20266;-75
2022/03/23 09:29:27;;;;;;;49.53;31.75;;;11.50;99.90;;;;;;6151933;23;20010;-75
2022/03/23 09:31:53;;;;;;;46.55;31.00;;;11.60;99.90;;;;;;6150903;23;20399;-75
2022/03/23 09:34:19;;;;;;;45.10;29.40;;;11.60;99.90;;;;;;6151118;23;20023;-75
2022/03/23 09:39:29;;;;;;;42.17;26.95;;;11.70;99.90;;;;;;6150487;23;20022;-75
2022/03/23 09:41:57;;;;;;;39.22;26.45;;;11.80;99.90;;;;;;6151159;23;20018;-75
2022/03/23 09:44:28;;;;;;;45.17;27.98;;;11.80;99.90;;;;;;6150994;23;20021;-76
2022/03/23 09:46:55;;;;;;;40.10;26.73;;;11.80;99.90;;;;;;6152550;23;20010;-75
2022/03/23 09:49:23;;;;;;;41.92;27.88;;;12.00;99.90;;;;;;6150741;23;20379;-75
2022/03/23 09:51:53;;;;;;;40.47;26.95;;;12.10;99.90;;;;;;6152637;23;20308;-75
2022/03/23 09:54:22;;;;;;;44.15;27.33;;;12.10;99.90;;;;;;6126297;23;20331;-76
2022/03/23 09:56:51;;;;;;;42.30;27.30;;;12.20;99.90;;;;;;6150590;23;21017;-76
2022/03/23 09:59:17;;;;;;;48.53;32.03;;;12.20;99.90;;;;;;6150308;23;20506;-76
2022/03/23 10:01:49;;;;;;;43.13;26.73;;;12.20;99.90;;;;;;6149528;23;20092;-76
2022/03/23 10:04:18;;;;;;;38.75;25.75;;;12.30;99.90;;;;;;6150621;23;20013;-76
2022/03/23 10:07:01;;;;;;;36.40;25.48;;;12.30;99.90;;;;;;6150445;23;20459;-76
2022/03/23 10:09:27;;;;;;;35.40;25.67;;;12.40;99.90;;;;;;6152587;23;20324;-75
2022/03/23 10:12:26;;;;;;;40.25;24.60;;;12.40;99.90;;;;;;6152494;23;20014;-76
2022/03/23 10:15:20;;;;;;;38.30;25.02;;;12.50;99.90;;;;;;6151744;23;20044;-77
2022/03/23 10:18:13;;;;;;;38.53;24.45;;;12.60;99.90;;;;;;6153413;23;20022;-75
2022/03/23 10:20:39;;;;;;;38.70;27.00;;;12.70;99.90;;;;;;6152479;23;20076;-75
2022/03/23 10:23:08;;;;;;;32.88;24.38;;;12.70;99.90;;;;;;6154137;23;20013;-74
2022/03/23 10:25:34;;;;;;;34.83;23.98;;;12.90;99.90;;;;;;6127805;23;20459;-75
2022/03/23 10:28:10;;;;;;;34.47;24.40;;;12.90;99.90;;;;;;6153762;23;20014;-75
2022/03/23 10:30:38;;;;;;;31.77;24.48;;;12.90;99.90;;;;;;6153812;23;20340;-75
2022/03/23 10:33:14;;;;;;;34.38;23.05;;;13.00;99.90;;;;;;6151467;23;20103;-75
2022/03/23 10:35:40;;;;;;;35.90;22.38;;;13.00;99.90;;;;;;6152286;23;20052;-75
2022/03/23 10:38:17;;;;;;;35.35;23.55;;;13.00;99.90;;;;;;6152525;23;20337;-75
2022/03/23 10:40:44;;;;;;;36.47;21.08;;;13.00;99.90;;;;;;6152192;23;20017;-75
2022/03/23 10:43:12;;;;;;;33.92;21.08;;;13.10;99.90;;;;;;6154325;23;20448;-75
2022/03/23 10:45:38;;;;;;;32.10;21.48;;;13.10;99.90;;;;;;6152438;23;20006;-75
2022/03/23 10:48:22;;;;;;;29.52;19.83;;;13.20;99.90;;;;;;6127186;23;20073;-75
2022/03/23 10:51:00;;;;;;;32.72;19.33;;;13.30;98.50;;;;;;6152264;23;20076;-75
2022/03/23 10:53:33;;;;;;;31.73;20.77;;;13.40;98.50;;;;;;6154535;23;20009;-75
2022/03/23 10:55:59;;;;;;;28.83;19.80;;;13.40;98.70;;;;;;6155137;23;20068;-75
2022/03/23 10:58:26;;;;;;;38.35;20.83;;;13.40;98.80;;;;;;6154674;23;20469;-75
2022/03/23 11:00:58;;;;;;;30.33;20.38;;;13.40;98.70;;;;;;6154665;23;20017;-75
2022/03/23 11:03:48;;;;;;;29.23;19.40;;;13.50;97.50;;;;;;6130399;23;20013;-75
2022/03/23 11:06:16;;;;;;;34.00;19.38;;;13.60;97.10;;;;;;6106893;23;20325;-75
2022/03/23 11:08:47;;;;;;;30.45;19.65;;;13.50;98.00;;;;;;6155948;23;20020;-75
2022/03/23 11:16:37;;;;;;;40.15;19.58;;;13.90;96.90;;;;;;6156156;23;20444;-75
2022/03/23 11:19:12;;;;;;;30.20;18.52;;;13.90;96.80;;;;;;6155450;23;20100;-75
2022/03/23 11:21:57;;;;;;;30.50;16.80;;;14.00;94.80;;;;;;6155867;23;20411;-75
2022/03/23 11:24:25;;;;;;;28.45;16.35;;;14.20;92.40;;;;;;6153770;23;20017;-75
2022/03/23 11:26:52;;;;;;;31.05;17.90;;;14.20;94.20;;;;;;6154613;23;20024;-75
2022/03/23 11:29:21;;;;;;;26.88;17.95;;;14.20;94.80;;;;;;6154084;23;20099;-75
2022/03/23 11:31:54;;;;;;;29.17;16.65;;;14.20;95.20;;;;;;6155832;23;20115;-75
2022/03/23 11:34:23;;;;;;;30.27;15.63;;;14.20;95.10;;;;;;6154418;23;20440;-75
2022/03/23 11:36:52;;;;;;;28.45;16.17;;;14.20;95.10;;;;;;6154315;23;20016;-75
2022/03/23 11:39:22;;;;;;;30.00;16.55;;;14.20;94.70;;;;;;6153671;23;20013;-75
2022/03/23 11:41:51;;;;;;;31.98;17.30;;;14.20;94.80;;;;;;6129067;23;20013;-75
2022/03/23 11:44:21;;;;;;;30.83;14.80;;;14.20;95.10;;;;;;6155705;23;20440;-75
2022/03/23 11:46:48;;;;;;;28.13;14.73;;;14.40;93.00;;;;;;6129577;23;20021;-75
2022/03/23 11:49:32;;;;;;;31.00;14.25;;;14.40;93.20;;;;;;6153799;23;20052;-75
2022/03/23 11:52:19;;;;;;;28.17;12.45;;;14.50;92.30;;;;;;6153955;23;20021;-79
2022/03/23 11:57:58;;;;;;;29.30;12.52;;;14.70;92.70;;;;;;6152233;23;20021;-75
2022/03/23 12:00:26;;;;;;;31.67;12.43;;;14.70;92.80;;;;;;6151325;23;20025;-75
2022/03/23 12:02:56;;;;;;;25.95;12.60;;;14.70;93.10;;;;;;6127386;23;20133;-75
2022/03/23 12:05:26;;;;;;;33.40;12.52;;;14.60;93.00;;;;;;6151525;23;20017;-75
2022/03/23 12:07:53;;;;;;;24.30;12.63;;;14.60;93.10;;;;;;6151997;23;20017;-75
2022/03/23 12:10:24;;;;;;;31.60;12.45;;;14.60;93.10;;;;;;6151229;23;20060;-75
2022/03/23 12:12:50;;;;;;;35.60;13.38;;;14.60;92.80;;;;;;6126225;23;20017;-76
2022/03/23 12:15:26;;;;;;;32.75;12.32;;;14.80;92.00;;;;;;6151689;23;20337;-76
2022/03/23 12:18:03;;;;;;;35.13;12.07;;;15.00;90.20;;;;;;6150825;23;20096;-76
2022/03/23 12:20:40;;;;;;;27.92;14.10;;;15.20;89.30;;;;;;6153063;23;20053;-75
2022/03/23 12:23:15;;;;;;;29.08;12.15;;;15.40;89.90;;;;;;6151192;23;20341;-76
2022/03/23 12:25:48;;;;;;;35.65;13.70;;;15.40;90.10;;;;;;6152010;23;20018;-75
2022/03/23 12:28:40;;;;;;;33.28;15.02;;;15.40;89.80;;;;;;6151166;23;20076;-75
2022/03/23 12:31:10;;;;;;;28.73;12.90;;;15.40;90.00;;;;;;6152921;23;20022;-75
2022/03/23 12:34:04;;;;;;;28.23;11.35;;;15.40;91.00;;;;;;6152800;23;20016;-76
2022/03/23 12:36:58;;;;;;;31.10;12.77;;;15.30;91.40;;;;;;6151138;23;20025;-75
2022/03/23 12:39:39;;;;;;;24.90;10.93;;;15.40;89.10;;;;;;6150632;23;20024;-75
2022/03/23 12:42:11;;;;;;;35.10;11.52;;;15.40;90.40;;;;;;6152843;23;20092;-76
2022/03/23 12:44:38;;;;;;;37.50;10.98;;;15.50;90.10;;;;;;6152157;23;20013;-75
2022/03/23 12:47:28;;;;;;;34.08;10.85;;;15.60;90.30;;;;;;6150099;23;20018;-76
2022/03/23 12:58:38;;;;;;;27.75;10.48;;;15.50;91.10;;;;;;6152335;23;20013;-76
2022/03/23 13:01:19;;;;;;;28.23;10.32;;;15.50;90.00;;;;;;6150541;23;20392;-75
2022/03/23 13:03:44;;;;;;;51.05;11.18;;;15.70;88.00;;;;;;6150295;23;20018;-75
2022/03/23 13:06:12;;;;;;;35.90;9.45;;;15.70;88.40;;;;;;6150593;23;20024;-76
2022/03/23 13:08:47;;;;;;;30.40;9.57;;;15.80;86.60;;;;;;6151255;23;20093;-76